SILO ALERT LOG


Silo ID Alert Type Alert Message Silo Type Points Depth (mm) Strength Temperature (°C) Humidity (%) Height (mm) Volume (㎥) Weight (t) Flag Time
DJHNR14 Temperature 온도센서 측정값이 0도 미만 호퍼 45 3102 4470 -2.9 72.3 7277 103.037 65.14 11 2024-01-12 22:39:30.000
DJHNR13 Temperature 온도센서 측정값이 0도 미만 호퍼 15 2900 3060 -1.9 67.7 7479 107.394 67.894 0 2024-01-12 22:39:29.000
DJSSD12 Temperature 온도센서 상태 이상 호퍼 0 11350 0 -999 -999 -120 0 0 31 2024-01-12 22:39:25.000
DJHNR03 Temperature 온도센서 상태 이상 호퍼 0 15500 0 -999 -999 -119 0 0 31 2024-01-12 22:39:24.000
DJSAD01 Humidity 습도센서 측정값이 80% 초과 445 1461 7482 2.4 85.2 7318 302.975 191.541 0 2024-01-12 21:39:40.000
DJSAD02 Humidity 습도센서 측정값이 80% 초과 382 1135 4347 3 85.1 7644 316.444 200.056 11 2024-01-12 21:39:39.000
DJDJD03 Humidity 습도센서 측정값이 80% 초과 60 4964 5037 3.9 81.1 2715 328.931 207.95 0 2024-01-12 21:39:39.000
DJSAD03 Humidity 습도센서 측정값이 80% 초과 444 1707 6157 4.2 84.5 7072 292.772 185.09 0 2024-01-12 21:39:39.000
DJSSD01 Humidity 습도센서 측정값이 80% 초과 800 2561 4650 6.2 82.4 5518 768.085 485.583 0 2024-01-12 21:39:33.000
DJSSD04 Temperature 온도센서 상태 이상 0 8200 0 -999 -999 -120 -16.702 0 31 2024-01-12 21:39:33.000
DJHNR01 Humidity 습도센서 측정값이 80% 초과 호퍼 471 4315 4904 6.7 99.8 11064 472.262 298.564 13 2024-01-12 21:39:32.000
DJSSD09 Temperature 온도센서 측정값이 0도 미만 119 2973 3122 -45.4 0 4706 655.118 414.166 11 2024-01-12 21:39:32.000
DJSSD05 Temperature 온도센서 측정값이 0도 미만 850 2542 4876 -45.4 43.7 5537 770.674 487.22 0 2024-01-12 21:39:32.000
DJHNR11 Temperature 온도센서 측정값이 0도 미만 호퍼 84 4833 231 -2.6 75 5546 65.689 41.529 11 2024-01-12 21:39:31.000
DJSAD17 Humidity 습도센서 측정값이 80% 초과 440 3115 4928 4.9 81.2 4464 444.616 281.086 0 2024-01-12 21:39:31.000
DJHNR14 Temperature 온도센서 측정값이 0도 미만 호퍼 41 3039 4517 -2.3 72.1 7340 104.377 65.987 11 2024-01-12 21:39:31.000
DJHNR13 Temperature 온도센서 측정값이 0도 미만 호퍼 15 2769 3051 -1.3 67.5 7610 110.2 69.668 11 2024-01-12 21:39:31.000
DJSAD07 Humidity 습도센서 측정값이 80% 초과 268 2454 3476 2.9 82.3 5125 729.32 461.076 11 2024-01-12 21:39:31.000
DJSSD11 Temperature 온도센서 측정값이 0도 미만 호퍼 445 7381 153 -2.3 61.9 3848 29.079 15.848 11 2024-01-12 21:39:31.000
DJDJD04 Humidity 습도센서 측정값이 80% 초과 280 4197 4449 5.2 80.8 3482 421.89 266.719 11 2024-01-12 21:39:31.000

[첫 페이지] [9975] [9976] [9977] [9978] 9979 [9980] [9981] [9982] [9983] [마지막 페이지]